sensor_id;sensor_type;location;lat;lon;timestamp;temperature;humidity
19174;DHT22;9719;49.322;8.536;2022-10-31T00:04:11;14.20;88.40
19174;DHT22;9719;49.322;8.536;2022-10-31T00:09:14;14.20;88.30
19174;DHT22;9719;49.322;8.536;2022-10-31T00:14:16;14.10;88.60
19174;DHT22;9719;49.322;8.536;2022-10-31T00:19:18;14.10;88.70
19174;DHT22;9719;49.322;8.536;2022-10-31T00:24:22;14.10;88.80
19174;DHT22;9719;49.322;8.536;2022-10-31T00:29:24;14.20;88.60
19174;DHT22;9719;49.322;8.536;2022-10-31T00:34:26;14.20;88.90
19174;DHT22;9719;49.322;8.536;2022-10-31T00:39:29;14.20;89.00
19174;DHT22;9719;49.322;8.536;2022-10-31T00:44:31;14.20;89.10
19174;DHT22;9719;49.322;8.536;2022-10-31T00:49:33;14.20;88.90
19174;DHT22;9719;49.322;8.536;2022-10-31T00:54:37;14.20;89.00
19174;DHT22;9719;49.322;8.536;2022-10-31T00:59:39;14.20;89.00
19174;DHT22;9719;49.322;8.536;2022-10-31T01:04:41;14.10;89.00
19174;DHT22;9719;49.322;8.536;2022-10-31T01:09:44;14.20;88.80
19174;DHT22;9719;49.322;8.536;2022-10-31T01:14:46;14.10;88.80
19174;DHT22;9719;49.322;8.536;2022-10-31T01:19:48;14.00;88.60
19174;DHT22;9719;49.322;8.536;2022-10-31T01:24:51;13.80;87.80
19174;DHT22;9719;49.322;8.536;2022-10-31T01:29:53;13.70;88.10
19174;DHT22;9719;49.322;8.536;2022-10-31T01:34:56;13.40;88.30
19174;DHT22;9719;49.322;8.536;2022-10-31T01:39:59;13.30;88.70
19174;DHT22;9719;49.322;8.536;2022-10-31T01:45:01;13.20;88.80
19174;DHT22;9719;49.322;8.536;2022-10-31T01:50:09;13.20;88.70
19174;DHT22;9719;49.322;8.536;2022-10-31T01:55:16;13.20;89.00
19174;DHT22;9719;49.322;8.536;2022-10-31T02:00:21;13.10;89.20
19174;DHT22;9719;49.322;8.536;2022-10-31T02:05:25;13.20;88.90
19174;DHT22;9719;49.322;8.536;2022-10-31T02:10:30;13.10;88.70
19174;DHT22;9719;49.322;8.536;2022-10-31T02:15:33;12.90;89.00
19174;DHT22;9719;49.322;8.536;2022-10-31T02:20:43;12.90;89.50
19174;DHT22;9719;49.322;8.536;2022-10-31T02:26:12;12.80;89.60
19174;DHT22;9719;49.322;8.536;2022-10-31T02:31:25;12.90;89.60
19174;DHT22;9719;49.322;8.536;2022-10-31T02:36:37;12.90;89.30
19174;DHT22;9719;49.322;8.536;2022-10-31T02:41:48;12.70;89.20
19174;DHT22;9719;49.322;8.536;2022-10-31T02:46:54;12.70;89.30
19174;DHT22;9719;49.322;8.536;2022-10-31T02:51:59;12.60;89.30
19174;DHT22;9719;49.322;8.536;2022-10-31T02:57:04;12.60;89.40
19174;DHT22;9719;49.322;8.536;2022-10-31T03:02:33;12.40;89.80
19174;DHT22;9719;49.322;8.536;2022-10-31T03:07:44;12.50;90.00
19174;DHT22;9719;49.322;8.536;2022-10-31T03:12:55;12.50;90.00
19174;DHT22;9719;49.322;8.536;2022-10-31T03:18:04;12.50;89.80
19174;DHT22;9719;49.322;8.536;2022-10-31T03:23:14;12.50;89.80
19174;DHT22;9719;49.322;8.536;2022-10-31T03:28:20;12.50;89.90
19174;DHT22;9719;49.322;8.536;2022-10-31T03:33:28;12.50;90.00
19174;DHT22;9719;49.322;8.536;2022-10-31T03:38:33;12.50;90.30
19174;DHT22;9719;49.322;8.536;2022-10-31T03:43:40;12.60;90.40
19174;DHT22;9719;49.322;8.536;2022-10-31T03:48:45;12.70;90.50
19174;DHT22;9719;49.322;8.536;2022-10-31T03:53:54;12.70;90.50
19174;DHT22;9719;49.322;8.536;2022-10-31T03:59:00;12.70;90.00
19174;DHT22;9719;49.322;8.536;2022-10-31T04:04:05;12.70;89.40
19174;DHT22;9719;49.322;8.536;2022-10-31T04:09:09;12.40;89.60
19174;DHT22;9719;49.322;8.536;2022-10-31T04:14:12;12.30;89.80
19174;DHT22;9719;49.322;8.536;2022-10-31T04:19:16;12.30;89.70
19174;DHT22;9719;49.322;8.536;2022-10-31T04:24:18;12.20;89.80
19174;DHT22;9719;49.322;8.536;2022-10-31T04:29:20;12.10;89.90
19174;DHT22;9719;49.322;8.536;2022-10-31T04:34:23;12.10;89.80
19174;DHT22;9719;49.322;8.536;2022-10-31T04:39:26;11.90;89.20
19174;DHT22;9719;49.322;8.536;2022-10-31T04:44:28;11.70;89.70
19174;DHT22;9719;49.322;8.536;2022-10-31T04:49:31;11.70;90.10
19174;DHT22;9719;49.322;8.536;2022-10-31T04:54:33;11.70;90.30
19174;DHT22;9719;49.322;8.536;2022-10-31T04:59:35;11.70;90.30
19174;DHT22;9719;49.322;8.536;2022-10-31T05:04:38;11.80;90.40
19174;DHT22;9719;49.322;8.536;2022-10-31T05:09:40;11.80;90.10
19174;DHT22;9719;49.322;8.536;2022-10-31T05:14:42;11.70;90.20
19174;DHT22;9719;49.322;8.536;2022-10-31T05:19:46;11.60;90.10
19174;DHT22;9719;49.322;8.536;2022-10-31T05:24:48;11.50;89.90
19174;DHT22;9719;49.322;8.536;2022-10-31T05:29:50;11.40;90.10
19174;DHT22;9719;49.322;8.536;2022-10-31T05:34:53;11.30;90.30
19174;DHT22;9719;49.322;8.536;2022-10-31T05:39:55;11.30;90.50
19174;DHT22;9719;49.322;8.536;2022-10-31T05:44:58;11.30;90.50
19174;DHT22;9719;49.322;8.536;2022-10-31T05:50:02;11.40;90.60
19174;DHT22;9719;49.322;8.536;2022-10-31T05:55:04;11.40;90.20
19174;DHT22;9719;49.322;8.536;2022-10-31T06:00:08;11.20;90.00
19174;DHT22;9719;49.322;8.536;2022-10-31T06:05:12;11.10;90.30
19174;DHT22;9719;49.322;8.536;2022-10-31T06:10:14;11.10;90.90
19174;DHT22;9719;49.322;8.536;2022-10-31T06:15:17;11.10;91.00
19174;DHT22;9719;49.322;8.536;2022-10-31T06:20:20;11.10;91.00
19174;DHT22;9719;49.322;8.536;2022-10-31T06:25:22;11.20;90.90
19174;DHT22;9719;49.322;8.536;2022-10-31T06:30:25;11.20;91.10
19174;DHT22;9719;49.322;8.536;2022-10-31T06:35:28;11.30;91.30
19174;DHT22;9719;49.322;8.536;2022-10-31T06:40:30;11.50;91.30
19174;DHT22;9719;49.322;8.536;2022-10-31T06:45:32;11.50;91.20
19174;DHT22;9719;49.322;8.536;2022-10-31T06:50:36;11.60;91.10
19174;DHT22;9719;49.322;8.536;2022-10-31T06:55:38;11.60;91.20
19174;DHT22;9719;49.322;8.536;2022-10-31T07:00:40;11.80;91.50
19174;DHT22;9719;49.322;8.536;2022-10-31T07:05:43;11.90;91.60
19174;DHT22;9719;49.322;8.536;2022-10-31T07:10:51;12.10;91.70
19174;DHT22;9719;49.322;8.536;2022-10-31T07:15:58;12.20;91.80
19174;DHT22;9719;49.322;8.536;2022-10-31T07:21:02;12.40;91.70
19174;DHT22;9719;49.322;8.536;2022-10-31T07:26:04;12.60;91.80
19174;DHT22;9719;49.322;8.536;2022-10-31T07:31:06;12.80;91.80
19174;DHT22;9719;49.322;8.536;2022-10-31T07:36:10;12.80;91.80
19174;DHT22;9719;49.322;8.536;2022-10-31T07:41:12;13.10;91.90
19174;DHT22;9719;49.322;8.536;2022-10-31T07:46:14;13.20;91.80
19174;DHT22;9719;49.322;8.536;2022-10-31T07:51:17;13.40;91.80
19174;DHT22;9719;49.322;8.536;2022-10-31T07:56:19;13.50;91.80
19174;DHT22;9719;49.322;8.536;2022-10-31T08:01:21;13.70;91.80
19174;DHT22;9719;49.322;8.536;2022-10-31T08:06:25;13.80;91.70
19174;DHT22;9719;49.322;8.536;2022-10-31T08:11:27;14.00;91.70
19174;DHT22;9719;49.322;8.536;2022-10-31T08:16:29;14.10;91.60
19174;DHT22;9719;49.322;8.536;2022-10-31T08:21:33;14.20;91.50
19174;DHT22;9719;49.322;8.536;2022-10-31T08:26:36;14.40;91.50
19174;DHT22;9719;49.322;8.536;2022-10-31T08:31:38;14.60;91.40
19174;DHT22;9719;49.322;8.536;2022-10-31T08:36:41;14.70;91.50
19174;DHT22;9719;49.322;8.536;2022-10-31T08:41:45;14.90;91.50
19174;DHT22;9719;49.322;8.536;2022-10-31T08:46:47;15.10;91.50
19174;DHT22;9719;49.322;8.536;2022-10-31T08:51:50;15.30;91.40
19174;DHT22;9719;49.322;8.536;2022-10-31T08:56:54;15.60;91.50
19174;DHT22;9719;49.322;8.536;2022-10-31T09:01:56;16.10;91.60
19174;DHT22;9719;49.322;8.536;2022-10-31T09:07:00;16.60;90.60
19174;DHT22;9719;49.322;8.536;2022-10-31T09:12:02;16.80;90.10
19174;DHT22;9719;49.322;8.536;2022-10-31T09:17:04;17.00;89.70
19174;DHT22;9719;49.322;8.536;2022-10-31T09:22:07;17.20;89.60
19174;DHT22;9719;49.322;8.536;2022-10-31T09:27:09;17.60;89.10
19174;DHT22;9719;49.322;8.536;2022-10-31T09:32:11;17.90;88.70
19174;DHT22;9719;49.322;8.536;2022-10-31T09:37:15;18.30;88.20
19174;DHT22;9719;49.322;8.536;2022-10-31T09:42:33;18.60;86.90
19174;DHT22;9719;49.322;8.536;2022-10-31T09:47:47;18.90;86.90
19174;DHT22;9719;49.322;8.536;2022-10-31T09:52:57;19.20;85.20
19174;DHT22;9719;49.322;8.536;2022-10-31T09:58:01;19.30;85.10
19174;DHT22;9719;49.322;8.536;2022-10-31T10:03:10;19.20;84.70
19174;DHT22;9719;49.322;8.536;2022-10-31T10:08:18;19.10;84.50
19174;DHT22;9719;49.322;8.536;2022-10-31T10:13:36;18.90;84.00
19174;DHT22;9719;49.322;8.536;2022-10-31T10:18:54;18.80;83.60
19174;DHT22;9719;49.322;8.536;2022-10-31T10:24:11;18.90;83.90
19174;DHT22;9719;49.322;8.536;2022-10-31T10:29:29;19.00;83.50
19174;DHT22;9719;49.322;8.536;2022-10-31T10:34:36;19.60;81.80
19174;DHT22;9719;49.322;8.536;2022-10-31T10:39:45;20.00;80.40
19174;DHT22;9719;49.322;8.536;2022-10-31T10:44:50;20.00;80.00
19174;DHT22;9719;49.322;8.536;2022-10-31T10:50:13;20.00;80.10
19174;DHT22;9719;49.322;8.536;2022-10-31T10:55:25;20.10;80.30
19174;DHT22;9719;49.322;8.536;2022-10-31T11:00:33;20.10;80.10
19174;DHT22;9719;49.322;8.536;2022-10-31T11:05:39;20.00;79.90
19174;DHT22;9719;49.322;8.536;2022-10-31T11:10:44;19.90;80.00
19174;DHT22;9719;49.322;8.536;2022-10-31T11:16:04;19.80;79.80
19174;DHT22;9719;49.322;8.536;2022-10-31T11:21:20;19.70;80.30
19174;DHT22;9719;49.322;8.536;2022-10-31T11:26:24;19.60;80.30
19174;DHT22;9719;49.322;8.536;2022-10-31T11:31:27;19.60;80.50
19174;DHT22;9719;49.322;8.536;2022-10-31T11:36:30;19.70;80.70
19174;DHT22;9719;49.322;8.536;2022-10-31T11:41:36;19.80;80.60
19174;DHT22;9719;49.322;8.536;2022-10-31T11:46:41;19.80;80.50
19174;DHT22;9719;49.322;8.536;2022-10-31T11:51:48;19.80;80.40
19174;DHT22;9719;49.322;8.536;2022-10-31T11:56:52;19.80;80.40
19174;DHT22;9719;49.322;8.536;2022-10-31T12:01:55;19.70;80.10
19174;DHT22;9719;49.322;8.536;2022-10-31T12:06:58;19.70;80.40
19174;DHT22;9719;49.322;8.536;2022-10-31T12:17:47;19.70;80.50
19174;DHT22;9719;49.322;8.536;2022-10-31T12:22:57;19.70;80.50
19174;DHT22;9719;49.322;8.536;2022-10-31T12:28:21;19.70;80.60
19174;DHT22;9719;49.322;8.536;2022-10-31T12:33:40;19.70;80.50
19174;DHT22;9719;49.322;8.536;2022-10-31T12:38:59;19.70;80.70
19174;DHT22;9719;49.322;8.536;2022-10-31T12:44:06;19.70;80.50
19174;DHT22;9719;49.322;8.536;2022-10-31T12:49:27;19.70;80.70
19174;DHT22;9719;49.322;8.536;2022-10-31T12:54:45;19.60;80.40
19174;DHT22;9719;49.322;8.536;2022-10-31T12:59:55;19.60;80.30
19174;DHT22;9719;49.322;8.536;2022-10-31T13:05:01;19.60;80.40
19174;DHT22;9719;49.322;8.536;2022-10-31T13:10:15;19.60;80.30
19174;DHT22;9719;49.322;8.536;2022-10-31T13:15:25;19.60;80.70
19174;DHT22;9719;49.322;8.536;2022-10-31T13:20:30;19.60;80.30
19174;DHT22;9719;49.322;8.536;2022-10-31T13:25:38;19.60;80.50
19174;DHT22;9719;49.322;8.536;2022-10-31T13:30:43;19.60;80.70
19174;DHT22;9719;49.322;8.536;2022-10-31T13:35:52;19.60;80.30
19174;DHT22;9719;49.322;8.536;2022-10-31T13:40:58;19.70;80.90
19174;DHT22;9719;49.322;8.536;2022-10-31T13:46:24;19.70;81.00
19174;DHT22;9719;49.322;8.536;2022-10-31T13:51:29;19.90;80.90
19174;DHT22;9719;49.322;8.536;2022-10-31T13:56:33;20.10;80.50
19174;DHT22;9719;49.322;8.536;2022-10-31T14:01:45;20.20;80.30
19174;DHT22;9719;49.322;8.536;2022-10-31T14:06:55;20.20;80.00
19174;DHT22;9719;49.322;8.536;2022-10-31T14:12:02;20.10;79.90
19174;DHT22;9719;49.322;8.536;2022-10-31T14:17:17;20.00;79.80
19174;DHT22;9719;49.322;8.536;2022-10-31T14:22:20;19.90;80.10
19174;DHT22;9719;49.322;8.536;2022-10-31T14:27:49;19.80;80.00
19174;DHT22;9719;49.322;8.536;2022-10-31T14:32:57;19.60;79.90
19174;DHT22;9719;49.322;8.536;2022-10-31T14:38:12;19.40;80.10
19174;DHT22;9719;49.322;8.536;2022-10-31T14:49:11;19.20;80.40
19174;DHT22;9719;49.322;8.536;2022-10-31T14:54:18;19.00;80.80
19174;DHT22;9719;49.322;8.536;2022-10-31T14:59:24;18.80;81.10
19174;DHT22;9719;49.322;8.536;2022-10-31T15:04:30;18.80;81.50
19174;DHT22;9719;49.322;8.536;2022-10-31T15:09:35;18.80;81.70
19174;DHT22;9719;49.322;8.536;2022-10-31T15:14:38;18.70;81.50
19174;DHT22;9719;49.322;8.536;2022-10-31T15:19:42;18.70;81.60
19174;DHT22;9719;49.322;8.536;2022-10-31T15:24:45;18.60;81.60
19174;DHT22;9719;49.322;8.536;2022-10-31T15:29:48;18.70;81.80
19174;DHT22;9719;49.322;8.536;2022-10-31T15:34:53;18.60;81.70
19174;DHT22;9719;49.322;8.536;2022-10-31T15:40:06;18.60;81.80
19174;DHT22;9719;49.322;8.536;2022-10-31T15:45:17;18.50;81.90
19174;DHT22;9719;49.322;8.536;2022-10-31T15:50:25;18.50;82.10
19174;DHT22;9719;49.322;8.536;2022-10-31T15:55:31;18.50;82.20
19174;DHT22;9719;49.322;8.536;2022-10-31T16:00:36;18.50;82.20
19174;DHT22;9719;49.322;8.536;2022-10-31T16:05:47;18.50;82.10
19174;DHT22;9719;49.322;8.536;2022-10-31T16:10:49;18.40;82.40
19174;DHT22;9719;49.322;8.536;2022-10-31T16:15:54;18.40;82.40
19174;DHT22;9719;49.322;8.536;2022-10-31T16:20:58;18.30;82.50
19174;DHT22;9719;49.322;8.536;2022-10-31T16:26:05;18.40;82.50
19174;DHT22;9719;49.322;8.536;2022-10-31T16:31:13;18.30;82.80
19174;DHT22;9719;49.322;8.536;2022-10-31T16:36:33;18.20;82.80
19174;DHT22;9719;49.322;8.536;2022-10-31T16:41:41;18.20;83.00
19174;DHT22;9719;49.322;8.536;2022-10-31T16:46:43;18.10;83.20
19174;DHT22;9719;49.322;8.536;2022-10-31T16:51:47;18.00;83.20
19174;DHT22;9719;49.322;8.536;2022-10-31T16:56:49;17.90;83.20
19174;DHT22;9719;49.322;8.536;2022-10-31T17:01:51;17.80;83.20
19174;DHT22;9719;49.322;8.536;2022-10-31T17:06:56;17.70;83.50
19174;DHT22;9719;49.322;8.536;2022-10-31T17:11:58;17.60;83.60
19174;DHT22;9719;49.322;8.536;2022-10-31T17:17:00;17.60;83.60
19174;DHT22;9719;49.322;8.536;2022-10-31T17:22:04;17.40;84.00
19174;DHT22;9719;49.322;8.536;2022-10-31T17:27:06;17.40;84.40
19174;DHT22;9719;49.322;8.536;2022-10-31T17:32:08;17.30;84.60
19174;DHT22;9719;49.322;8.536;2022-10-31T17:37:12;17.30;84.70
19174;DHT22;9719;49.322;8.536;2022-10-31T17:42:14;17.20;84.70
19174;DHT22;9719;49.322;8.536;2022-10-31T17:47:16;17.10;84.70
19174;DHT22;9719;49.322;8.536;2022-10-31T17:52:20;17.00;84.90
19174;DHT22;9719;49.322;8.536;2022-10-31T17:57:22;17.00;85.10
19174;DHT22;9719;49.322;8.536;2022-10-31T18:02:24;16.90;85.30
19174;DHT22;9719;49.322;8.536;2022-10-31T18:07:28;16.80;85.40
19174;DHT22;9719;49.322;8.536;2022-10-31T18:12:30;16.80;85.60
19174;DHT22;9719;49.322;8.536;2022-10-31T18:17:32;16.70;85.30
19174;DHT22;9719;49.322;8.536;2022-10-31T18:22:36;16.60;85.20
19174;DHT22;9719;49.322;8.536;2022-10-31T18:27:38;16.50;85.60
19174;DHT22;9719;49.322;8.536;2022-10-31T18:32:40;16.40;85.70
19174;DHT22;9719;49.322;8.536;2022-10-31T18:37:44;16.30;85.90
19174;DHT22;9719;49.322;8.536;2022-10-31T18:42:46;16.20;85.90
19174;DHT22;9719;49.322;8.536;2022-10-31T18:47:49;16.10;86.20
19174;DHT22;9719;49.322;8.536;2022-10-31T18:52:53;16.00;86.20
19174;DHT22;9719;49.322;8.536;2022-10-31T18:57:55;16.00;86.50
19174;DHT22;9719;49.322;8.536;2022-10-31T19:02:57;15.90;86.70
19174;DHT22;9719;49.322;8.536;2022-10-31T19:08:01;16.00;86.90
19174;DHT22;9719;49.322;8.536;2022-10-31T19:13:03;16.00;86.90
19174;DHT22;9719;49.322;8.536;2022-10-31T19:18:06;16.00;87.00
19174;DHT22;9719;49.322;8.536;2022-10-31T19:23:09;16.00;86.90
19174;DHT22;9719;49.322;8.536;2022-10-31T19:28:11;15.90;86.80
19174;DHT22;9719;49.322;8.536;2022-10-31T19:33:13;15.80;86.80
19174;DHT22;9719;49.322;8.536;2022-10-31T19:38:17;15.70;87.00
19174;DHT22;9719;49.322;8.536;2022-10-31T19:43:19;15.60;87.10
19174;DHT22;9719;49.322;8.536;2022-10-31T19:48:22;15.60;87.30
19174;DHT22;9719;49.322;8.536;2022-10-31T19:53:25;15.50;87.50
19174;DHT22;9719;49.322;8.536;2022-10-31T19:58:27;15.40;87.70
19174;DHT22;9719;49.322;8.536;2022-10-31T20:03:38;15.50;87.80
19174;DHT22;9719;49.322;8.536;2022-10-31T20:08:54;15.40;87.80
19174;DHT22;9719;49.322;8.536;2022-10-31T20:13:59;15.30;87.70
19174;DHT22;9719;49.322;8.536;2022-10-31T20:19:09;15.20;87.80
19174;DHT22;9719;49.322;8.536;2022-10-31T20:24:12;15.00;87.50
19174;DHT22;9719;49.322;8.536;2022-10-31T20:29:15;14.90;87.70
19174;DHT22;9719;49.322;8.536;2022-10-31T20:34:17;14.80;88.10
19174;DHT22;9719;49.322;8.536;2022-10-31T20:39:20;14.80;88.20
19174;DHT22;9719;49.322;8.536;2022-10-31T20:44:23;14.70;88.20
19174;DHT22;9719;49.322;8.536;2022-10-31T20:49:25;14.80;88.40
19174;DHT22;9719;49.322;8.536;2022-10-31T20:54:28;14.70;88.60
19174;DHT22;9719;49.322;8.536;2022-10-31T20:59:30;14.70;88.60
19174;DHT22;9719;49.322;8.536;2022-10-31T21:04:32;14.80;88.80
19174;DHT22;9719;49.322;8.536;2022-10-31T21:09:35;14.80;89.00
19174;DHT22;9719;49.322;8.536;2022-10-31T21:14:38;14.90;89.00
19174;DHT22;9719;49.322;8.536;2022-10-31T21:19:41;14.90;89.10
19174;DHT22;9719;49.322;8.536;2022-10-31T21:24:44;14.90;89.30
19174;DHT22;9719;49.322;8.536;2022-10-31T21:29:46;14.90;89.50
19174;DHT22;9719;49.322;8.536;2022-10-31T21:34:48;14.90;89.70
19174;DHT22;9719;49.322;8.536;2022-10-31T21:39:52;14.90;89.80
19174;DHT22;9719;49.322;8.536;2022-10-31T21:44:54;14.80;89.80
19174;DHT22;9719;49.322;8.536;2022-10-31T21:49:56;14.90;90.00
19174;DHT22;9719;49.322;8.536;2022-10-31T21:54:59;14.90;90.10
19174;DHT22;9719;49.322;8.536;2022-10-31T22:00:02;14.90;90.20
19174;DHT22;9719;49.322;8.536;2022-10-31T22:05:07;14.80;90.10
19174;DHT22;9719;49.322;8.536;2022-10-31T22:10:10;14.80;90.10
19174;DHT22;9719;49.322;8.536;2022-10-31T22:15:12;14.80;90.30
19174;DHT22;9719;49.322;8.536;2022-10-31T22:20:14;14.70;90.30
19174;DHT22;9719;49.322;8.536;2022-10-31T22:25:18;14.70;90.40
19174;DHT22;9719;49.322;8.536;2022-10-31T22:30:20;14.70;90.50
19174;DHT22;9719;49.322;8.536;2022-10-31T22:35:22;14.70;90.60
19174;DHT22;9719;49.322;8.536;2022-10-31T22:40:25;14.80;90.60
19174;DHT22;9719;49.322;8.536;2022-10-31T22:45:27;14.80;90.70
19174;DHT22;9719;49.322;8.536;2022-10-31T22:50:29;14.80;90.70
19174;DHT22;9719;49.322;8.536;2022-10-31T22:55:35;14.80;90.80
19174;DHT22;9719;49.322;8.536;2022-10-31T23:00:38;14.80;90.90
19174;DHT22;9719;49.322;8.536;2022-10-31T23:05:40;14.90;91.10
19174;DHT22;9719;49.322;8.536;2022-10-31T23:10:44;14.70;90.90
19174;DHT22;9719;49.322;8.536;2022-10-31T23:15:46;14.70;91.10
19174;DHT22;9719;49.322;8.536;2022-10-31T23:20:50;14.80;91.20
19174;DHT22;9719;49.322;8.536;2022-10-31T23:25:54;14.80;91.30
19174;DHT22;9719;49.322;8.536;2022-10-31T23:31:13;14.80;91.30
19174;DHT22;9719;49.322;8.536;2022-10-31T23:36:15;14.90;91.40
19174;DHT22;9719;49.322;8.536;2022-10-31T23:41:19;14.90;91.50
19174;DHT22;9719;49.322;8.536;2022-10-31T23:46:23;14.90;91.50
19174;DHT22;9719;49.322;8.536;2022-10-31T23:51:25;15.00;91.50
19174;DHT22;9719;49.322;8.536;2022-10-31T23:56:28;15.00;91.40
